logo
Search for airport 
image banner adimage banner adimage banner ad
image banner ad

EPKT - Katowice - Pyrzowice

Located in Katowice, Poland

ICAO - EPKT, IATA - KTW

Data provided by Airmate  

General information

Coordinates: N50°28'27" E19°4'48"
Elevation is 1007 feet MSL.
Magnetic variation is 5.8333° East
Rated:
View ratings:
[VIEW]
View others Airports in Silesia

Operational data

Special qualification required
Current time UTC:
Current local time:
Weather
METAR: EPKT 231630Z 13005KT 9999 SCT033 BKN038 07/07 Q1002
TAF: TAF AMD EPKT 231218Z 2312/2412 20010KT 9999 BKN033 BECMG 2312/2315 VRB02KT TEMPO 2312/2318 -RA BKN013 OVC025 PROB30 TEMPO 2315/2317 4000 RA BR BKN007 OVC014 BECMG 2317/2320 16012KT BECMG 2405/2408 26007KT TEMPO 2405/2410 4000 SHRA BKN008 BKN016CB
View NOTAMs / SUP AIP / TFR affecting this airport [VIEW]
Communications frequencies: [VIEW]

Runways:

RWY identifierQFULength (ft)Width (ft)SurfaceLDA (ft)
0890°10499148CONC10499
26270°10499148CONC9449
0990°9183195CON
27270°9183195CON

Airport contact information

Address: Katowice Poland

Satellite view of EPKT